Time;durP1;ratioP1;P1;durP2;ratioP2;P2;SDS_P1;SDS_P2;PMS_P1;PMS_P2;Temp;Humidity;BMP_temperature;BMP_pressure;BME280_temperature;BME280_humidity;BME280_pressure;Samples;Min_cycle;Max_cycle;Signal;HPM_P1;HPM_P2
2021/09/24 00:00:42;;;;;;;9.30;5.40;;;;;;;;;;5040654;28;20030;-79
2021/09/24 00:03:08;;;;;;;8.85;5.97;;;;;;;;;;5039901;28;20082;-78
2021/09/24 00:05:34;;;;;;;7.47;5.72;;;;;;;;;;5040315;28;20014;-77
2021/09/24 00:08:00;;;;;;;9.48;5.90;;;;;;;;;;5031902;28;20094;-78
2021/09/24 00:10:26;;;;;;;8.68;5.03;;;;;;;;;;5017793;28;20025;-78
2021/09/24 00:12:52;;;;;;;7.40;5.03;;;;;;;;;;5035931;28;20057;-76
2021/09/24 00:15:18;;;;;;;7.10;5.25;;;;;;;;;;5020180;28;20014;-77
2021/09/24 00:17:45;;;;;;;7.75;4.97;;;;;;;;;;5001907;28;20024;-78
2021/09/24 00:20:12;;;;;;;7.95;5.05;;;;;;;;;;5002340;28;20494;-78
2021/09/24 00:22:38;;;;;;;7.22;5.43;;;;;;;;;;5020319;28;20019;-78
2021/09/24 00:25:05;;;;;;;7.32;5.15;;;;;;;;;;5020948;28;20020;-76
2021/09/24 00:27:31;;;;;;;8.13;5.10;;;;;;;;;;5020128;28;20058;-75
2021/09/24 00:29:57;;;;;;;6.45;4.80;;;;;;;;;;5020172;28;20021;-78
2021/09/24 00:32:23;;;;;;;6.63;4.93;;;;;;;;;;5020313;28;20030;-75
2021/09/24 00:34:50;;;;;;;6.75;5.25;;;;;;;;;;5020818;28;20018;-80
2021/09/24 00:37:16;;;;;;;8.10;5.35;;;;;;;;;;5018946;28;20037;-76
2021/09/24 00:39:43;;;;;;;6.72;5.07;;;;;;;;;;5020491;28;20082;-77
2021/09/24 00:42:09;;;;;;;5.90;4.82;;;;;;;;;;5018434;28;20006;-78
2021/09/24 00:44:48;;;;;;;8.70;5.00;;;;;;;;;;5024249;28;20053;-77
2021/09/24 00:47:36;;;;;;;5.88;4.65;;;;;;;;;;5018741;28;20030;-77
2021/09/24 00:50:18;;;;;;;7.40;5.00;;;;;;;;;;5033788;28;20034;-79
2021/09/24 00:53:13;;;;;;;6.80;4.82;;;;;;;;;;5002366;28;20050;-75
2021/09/24 00:55:41;;;;;;;7.95;5.18;;;;;;;;;;5030519;28;20025;-80
2021/09/24 00:58:07;;;;;;;7.28;4.88;;;;;;;;;;5020129;28;20099;-78
2021/09/24 01:00:33;;;;;;;6.28;5.10;;;;;;;;;;5019753;28;20033;-77
2021/09/24 01:03:00;;;;;;;9.85;5.22;;;;;;;;;;5002833;28;20050;-79
2021/09/24 01:05:26;;;;;;;6.45;4.90;;;;;;;;;;5034971;28;20010;-78
2021/09/24 01:08:01;;;;;;;7.55;4.88;;;;;;;;;;5002399;28;20026;-79
2021/09/24 01:10:35;;;;;;;8.80;5.07;;;;;;;;;;4971801;28;20081;-77
2021/09/24 01:13:22;;;;;;;8.35;4.95;;;;;;;;;;4998775;28;20035;-77
2021/09/24 01:15:48;;;;;;;6.70;4.90;;;;;;;;;;5013016;28;20038;-78
2021/09/24 01:18:14;;;;;;;10.38;4.97;;;;;;;;;;5019542;28;20066;-75
2021/09/24 01:20:40;;;;;;;6.35;4.80;;;;;;;;;;5026761;28;20022;-76
2021/09/24 01:23:06;;;;;;;7.88;5.25;;;;;;;;;;5002730;28;20034;-76
2021/09/24 01:25:34;;;;;;;6.13;4.90;;;;;;;;;;5019824;28;20038;-76
2021/09/24 01:28:00;;;;;;;5.95;4.72;;;;;;;;;;5022988;28;20053;-76
2021/09/24 01:30:26;;;;;;;5.82;4.95;;;;;;;;;;5023452;28;20044;-76
2021/09/24 01:32:53;;;;;;;6.38;5.20;;;;;;;;;;5020195;28;20060;-78
2021/09/24 01:35:19;;;;;;;8.02;5.45;;;;;;;;;;5020880;28;20033;-79
2021/09/24 01:37:46;;;;;;;6.18;5.07;;;;;;;;;;5018542;28;20043;-75
2021/09/24 01:40:16;;;;;;;8.27;5.30;;;;;;;;;;5019402;28;20014;-80
2021/09/24 01:42:46;;;;;;;8.07;5.15;;;;;;;;;;5007526;28;20041;-77
2021/09/24 01:45:13;;;;;;;7.13;4.85;;;;;;;;;;5039456;28;20086;-78
2021/09/24 01:47:39;;;;;;;7.85;5.20;;;;;;;;;;5025657;28;20038;-79
2021/09/24 01:50:06;;;;;;;6.65;5.63;;;;;;;;;;5000718;28;20026;-79
2021/09/24 01:52:58;;;;;;;7.10;5.72;;;;;;;;;;5014280;28;20041;-77
2021/09/24 01:55:29;;;;;;;6.80;5.43;;;;;;;;;;5006839;28;20038;-79
2021/09/24 01:57:55;;;;;;;7.15;5.28;;;;;;;;;;5019144;28;20015;-76
2021/09/24 02:00:21;;;;;;;6.75;5.65;;;;;;;;;;5018997;28;20011;-79
2021/09/24 02:02:47;;;;;;;8.40;5.50;;;;;;;;;;5001139;28;20038;-79
2021/09/24 02:05:13;;;;;;;7.35;5.65;;;;;;;;;;5034763;28;20022;-77
2021/09/24 02:07:39;;;;;;;7.63;5.95;;;;;;;;;;5018147;28;20094;-76
2021/09/24 02:10:06;;;;;;;8.05;6.18;;;;;;;;;;5019500;28;20018;-78
2021/09/24 02:12:32;;;;;;;7.70;5.95;;;;;;;;;;5018124;28;20026;-76
2021/09/24 02:14:58;;;;;;;8.70;6.22;;;;;;;;;;5000546;23;20074;-76
2021/09/24 02:17:24;;;;;;;8.02;6.15;;;;;;;;;;4999744;28;20027;-77
2021/09/24 02:22:26;;;;;;;8.55;6.30;;;;;;;;;;5077849;23;20042;-75
2021/09/24 02:24:54;;;;;;;6.95;6.00;;;;;;;;;;5019050;28;20037;-77
2021/09/24 02:27:21;;;;;;;6.85;6.07;;;;;;;;;;5018324;28;20010;-76
2021/09/24 02:29:47;;;;;;;7.28;6.30;;;;;;;;;;5001714;28;20122;-76
2021/09/24 02:32:13;;;;;;;12.15;6.85;;;;;;;;;;5163972;23;20054;-78
2021/09/24 02:34:39;;;;;;;6.63;5.90;;;;;;;;;;5015133;28;20052;-77
2021/09/24 02:37:05;;;;;;;7.88;6.00;;;;;;;;;;5000156;28;20026;-76
2021/09/24 02:39:31;;;;;;;8.80;6.63;;;;;;;;;;5019641;28;20011;-78
2021/09/24 02:41:57;;;;;;;10.73;6.55;;;;;;;;;;5018955;28;20034;-78
2021/09/24 02:44:24;;;;;;;7.55;6.15;;;;;;;;;;5026009;28;20026;-77
2021/09/24 02:46:52;;;;;;;7.80;6.10;;;;;;;;;;5011549;28;20031;-75
2021/09/24 02:49:18;;;;;;;10.48;6.88;;;;;;;;;;5000545;28;20026;-76
2021/09/24 02:51:44;;;;;;;7.32;6.30;;;;;;;;;;5001615;28;20018;-78
2021/09/24 02:54:10;;;;;;;7.80;6.32;;;;;;;;;;5017759;28;20057;-77
2021/09/24 02:56:36;;;;;;;7.63;5.90;;;;;;;;;;4998206;28;20013;-76
2021/09/24 02:59:02;;;;;;;8.07;5.90;;;;;;;;;;5017387;28;20022;-78
2021/09/24 03:01:28;;;;;;;7.15;5.88;;;;;;;;;;5020982;28;20031;-77
2021/09/24 03:03:54;;;;;;;8.38;5.95;;;;;;;;;;5022256;28;20026;-80
2021/09/24 03:06:21;;;;;;;7.50;6.15;;;;;;;;;;5006195;28;20011;-76
2021/09/24 03:08:47;;;;;;;7.93;6.10;;;;;;;;;;5022646;28;20034;-77
2021/09/24 03:11:13;;;;;;;10.10;6.38;;;;;;;;;;5003951;28;20054;-76
2021/09/24 03:13:39;;;;;;;7.88;5.97;;;;;;;;;;5020230;28;20078;-76
2021/09/24 03:16:05;;;;;;;7.53;6.60;;;;;;;;;;5009020;28;20039;-78
2021/09/24 03:18:31;;;;;;;8.38;6.35;;;;;;;;;;4988035;28;20027;-76
2021/09/24 03:21:20;;;;;;;10.82;6.85;;;;;;;;;;5006302;28;20025;-76
2021/09/24 03:23:47;;;;;;;10.20;6.35;;;;;;;;;;5016998;28;20026;-79
2021/09/24 03:26:13;;;;;;;8.52;6.13;;;;;;;;;;5002434;28;20049;-78
2021/09/24 03:28:39;;;;;;;8.35;5.78;;;;;;;;;;5008098;28;20014;-75
2021/09/24 03:31:09;;;;;;;8.65;6.35;;;;;;;;;;5008666;28;20045;-77
2021/09/24 03:33:44;;;;;;;7.00;6.03;;;;;;;;;;5022241;28;20069;-76
2021/09/24 03:36:30;;;;;;;9.18;5.93;;;;;;;;;;5011472;28;20026;-79
2021/09/24 03:38:56;;;;;;;10.38;6.20;;;;;;;;;;5008937;28;20030;-78
2021/09/24 03:41:22;;;;;;;7.55;5.80;;;;;;;;;;5002236;28;20037;-78
2021/09/24 03:43:48;;;;;;;8.20;6.25;;;;;;;;;;5019770;28;20034;-77
2021/09/24 03:46:14;;;;;;;8.55;5.95;;;;;;;;;;5002279;28;20022;-79
2021/09/24 03:48:40;;;;;;;7.78;5.95;;;;;;;;;;5003993;28;20082;-77
2021/09/24 03:51:06;;;;;;;8.27;6.50;;;;;;;;;;5005354;28;20030;-79
2021/09/24 03:53:32;;;;;;;9.23;5.63;;;;;;;;;;5003648;28;20038;-77
2021/09/24 03:55:58;;;;;;;6.50;5.78;;;;;;;;;;5002037;28;20033;-79
2021/09/24 03:58:25;;;;;;;9.32;6.70;;;;;;;;;;5000756;28;20027;-77
2021/09/24 04:00:51;;;;;;;7.18;5.65;;;;;;;;;;5001026;28;20031;-78
2021/09/24 04:03:17;;;;;;;7.75;6.18;;;;;;;;;;5021345;28;20052;-76
2021/09/24 04:05:44;;;;;;;8.27;5.72;;;;;;;;;;5003453;28;20017;-77
2021/09/24 04:08:13;;;;;;;7.15;5.38;;;;;;;;;;5002000;28;20072;-77
2021/09/24 04:10:39;;;;;;;8.50;6.53;;;;;;;;;;5019793;28;20007;-78
2021/09/24 04:15:31;;;;;;;8.35;5.53;;;;;;;;;;5270599;23;20038;-80
2021/09/24 04:17:57;;;;;;;7.72;5.35;;;;;;;;;;5023683;28;20061;-80
2021/09/24 04:20:23;;;;;;;8.65;5.82;;;;;;;;;;5022436;28;20018;-78
2021/09/24 04:22:49;;;;;;;6.93;5.32;;;;;;;;;;5020130;28;20081;-80
2021/09/24 04:25:15;;;;;;;6.45;5.20;;;;;;;;;;5019402;28;20026;-80
2021/09/24 04:27:43;;;;;;;7.70;5.63;;;;;;;;;;5021383;28;20026;-79
2021/09/24 04:30:10;;;;;;;6.90;5.43;;;;;;;;;;5039694;28;20018;-77
2021/09/24 04:32:36;;;;;;;10.10;5.90;;;;;;;;;;5020921;28;20144;-78
2021/09/24 04:35:03;;;;;;;9.82;5.57;;;;;;;;;;5350086;23;20038;-78
2021/09/24 04:37:29;;;;;;;7.40;5.72;;;;;;;;;;5011850;28;20051;-78
2021/09/24 04:39:59;;;;;;;9.10;5.47;;;;;;;;;;5009784;28;20098;-78
2021/09/24 04:42:25;;;;;;;7.82;5.90;;;;;;;;;;5007916;28;20038;-76
2021/09/24 04:44:51;;;;;;;7.68;6.15;;;;;;;;;;4995412;28;20034;-76
2021/09/24 04:47:18;;;;;;;7.07;5.80;;;;;;;;;;5017335;28;20053;-77
2021/09/24 04:49:44;;;;;;;10.10;6.43;;;;;;;;;;5006161;28;20030;-77
2021/09/24 04:52:10;;;;;;;7.95;6.35;;;;;;;;;;5005388;28;20038;-76
2021/09/24 04:54:36;;;;;;;9.25;6.65;;;;;;;;;;5011156;28;20039;-78
2021/09/24 04:57:02;;;;;;;15.48;7.22;;;;;;;;;;4998638;28;20015;-78
2021/09/24 04:59:31;;;;;;;12.45;7.13;;;;;;;;;;4997828;28;20034;-77
2021/09/24 05:01:57;;;;;;;11.15;6.63;;;;;;;;;;4998791;28;20054;-78
2021/09/24 05:04:23;;;;;;;15.25;6.70;;;;;;;;;;4997421;28;20042;-69
2021/09/24 05:06:49;;;;;;;21.08;7.75;;;;;;;;;;4988383;28;20031;-68
2021/09/24 05:09:15;;;;;;;17.50;7.10;;;;;;;;;;4997113;28;20026;-69
2021/09/24 05:11:41;;;;;;;11.20;7.00;;;;;;;;;;4997273;28;20032;-68
2021/09/24 05:14:08;;;;;;;12.32;7.05;;;;;;;;;;5025858;23;20057;-68
2021/09/24 05:16:34;;;;;;;10.52;7.68;;;;;;;;;;5014582;28;20423;-71
2021/09/24 05:19:00;;;;;;;13.40;7.85;;;;;;;;;;5008905;28;20056;-68
2021/09/24 05:21:26;;;;;;;11.60;7.57;;;;;;;;;;5036801;28;20058;-68
2021/09/24 05:23:52;;;;;;;12.20;8.20;;;;;;;;;;5025330;28;20038;-67
2021/09/24 05:26:20;;;;;;;13.40;7.95;;;;;;;;;;5003088;28;20042;-68
2021/09/24 05:28:46;;;;;;;23.08;16.13;;;;;;;;;;5006015;28;20044;-75
2021/09/24 05:31:17;;;;;;;17.83;13.18;;;;;;;;;;4998461;28;20045;-76
2021/09/24 05:34:15;;;;;;;12.63;8.27;;;;;;;;;;5002969;28;20048;-70
2021/09/24 05:37:16;;;;;;;13.15;8.18;;;;;;;;;;4957893;29;20030;-73
2021/09/24 05:39:57;;;;;;;15.60;8.45;;;;;;;;;;4956638;29;20038;-71
2021/09/24 05:42:23;;;;;;;15.82;9.52;;;;;;;;;;4939215;29;20544;-71
2021/09/24 05:45:14;;;;;;;15.23;9.35;;;;;;;;;;4938633;29;20028;-71
2021/09/24 05:48:32;;;;;;;;;;;;;;;;;;;;;
2021/09/24 05:51:09;;;;;;;14.25;9.60;;;;;;;;;;4879148;29;20030;-71
2021/09/24 05:54:08;;;;;;;14.32;9.55;;;;;;;;;;4860246;29;20628;-71
2021/09/24 05:56:42;;;;;;;15.95;9.82;;;;;;;;;;4857739;29;20022;-74
2021/09/24 05:59:08;;;;;;;20.00;10.88;;;;;;;;;;4856452;29;20117;-74
2021/09/24 06:01:47;;;;;;;15.80;10.02;;;;;;;;;;4851507;29;20555;-72
2021/09/24 06:04:16;;;;;;;17.17;10.95;;;;;;;;;;4851693;29;20061;-69
2021/09/24 06:06:43;;;;;;;16.02;10.88;;;;;;;;;;4849088;29;20510;-72
2021/09/24 06:09:09;;;;;;;14.25;9.43;;;;;;;;;;4846939;29;20037;-74
2021/09/24 06:11:35;;;;;;;13.48;9.00;;;;;;;;;;4843509;29;20510;-73
2021/09/24 06:14:05;;;;;;;10.95;8.00;;;;;;;;;;4870984;29;20045;-74
2021/09/24 06:16:31;;;;;;;12.93;7.47;;;;;;;;;;4865631;29;20081;-73
2021/09/24 06:19:00;;;;;;;8.45;6.18;;;;;;;;;;4884111;29;20061;-74
2021/09/24 06:21:26;;;;;;;10.20;6.18;;;;;;;;;;4882851;29;20485;-73
2021/09/24 06:23:53;;;;;;;10.60;6.15;;;;;;;;;;4895363;29;20051;-76
2021/09/24 06:26:20;;;;;;;9.48;6.55;;;;;;;;;;4946305;29;20031;-73
2021/09/24 06:28:46;;;;;;;18.27;10.10;;;;;;;;;;4923263;29;20052;-73
2021/09/24 06:31:12;;;;;;;17.27;10.93;;;;;;;;;;4937912;29;20028;-78
2021/09/24 06:33:39;;;;;;;28.23;22.05;;;;;;;;;;4936512;29;20048;-75
2021/09/24 06:36:05;;;;;;;21.95;15.20;;;;;;;;;;4939032;29;20110;-74
2021/09/24 06:38:31;;;;;;;18.00;13.80;;;;;;;;;;4946869;29;20035;-80
2021/09/24 06:44:07;;;;;;;24.67;18.35;;;;;;;;;;4914748;29;20055;-86
2021/09/24 06:46:55;;;;;;;14.52;8.30;;;;;;;;;;4920038;29;20067;-78
2021/09/24 06:49:27;;;;;;;9.88;6.57;;;;;;;;;;4919646;29;20036;-79
2021/09/24 06:52:10;;;;;;;16.25;10.18;;;;;;;;;;4911167;29;20041;-77
2021/09/24 06:54:47;;;;;;;13.47;8.43;;;;;;;;;;4908535;29;20032;-86
2021/09/24 06:57:13;;;;;;;12.57;8.05;;;;;;;;;;4904765;29;20024;-85
2021/09/24 06:59:39;;;;;;;15.23;12.38;;;;;;;;;;4921599;29;20032;-75
2021/09/24 07:02:05;;;;;;;18.40;13.02;;;;;;;;;;4919877;29;20048;-74
2021/09/24 07:04:32;;;;;;;11.55;8.98;;;;;;;;;;4902943;29;20091;-74
2021/09/24 07:06:58;;;;;;;11.63;6.03;;;;;;;;;;4917873;29;20119;-81
2021/09/24 07:09:24;;;;;;;8.95;5.60;;;;;;;;;;4920702;29;20040;-74
2021/09/24 07:11:51;;;;;;;19.67;15.02;;;;;;;;;;4923516;29;20099;-77
2021/09/24 07:14:19;;;;;;;13.65;9.75;;;;;;;;;;4916526;29;20091;-78
2021/09/24 07:16:46;;;;;;;8.63;5.95;;;;;;;;;;4921534;29;20075;-80
2021/09/24 07:19:12;;;;;;;8.32;6.32;;;;;;;;;;4915346;29;20039;-77
2021/09/24 07:21:38;;;;;;;12.98;9.02;;;;;;;;;;4939584;29;20039;-80
2021/09/24 07:24:36;;;;;;;8.77;5.28;;;;;;;;;;5013360;23;20054;-80
2021/09/24 07:27:02;;;;;;;7.43;4.47;;;;;;;;;;4971756;28;20031;-75
2021/09/24 07:29:28;;;;;;;7.38;4.60;;;;;;;;;;4971808;28;20027;-76
2021/09/24 07:31:55;;;;;;;6.00;4.10;;;;;;;;;;4969600;28;20077;-78
2021/09/24 07:34:21;;;;;;;7.53;3.65;;;;;;;;;;4988185;28;20056;-74
2021/09/24 07:36:47;;;;;;;9.25;4.13;;;;;;;;;;4973754;28;20030;-79
2021/09/24 07:39:13;;;;;;;12.18;3.65;;;;;;;;;;4972454;28;20456;-74
2021/09/24 07:41:39;;;;;;;7.55;3.58;;;;;;;;;;4968123;28;20043;-75
2021/09/24 07:44:05;;;;;;;5.53;3.85;;;;;;;;;;4969920;28;20038;-76
2021/09/24 07:46:32;;;;;;;7.78;4.45;;;;;;;;;;4974769;28;20162;-77
2021/09/24 07:48:59;;;;;;;6.50;3.95;;;;;;;;;;4974522;28;20476;-74
2021/09/24 07:51:26;;;;;;;7.82;4.32;;;;;;;;;;4974652;28;20073;-78
2021/09/24 07:53:52;;;;;;;10.85;6.80;;;;;;;;;;4975167;28;20061;-79
2021/09/24 07:56:18;;;;;;;9.70;5.93;;;;;;;;;;4971002;28;20577;-78
2021/09/24 07:58:44;;;;;;;6.68;5.32;;;;;;;;;;4972912;28;20155;-82
2021/09/24 08:01:11;;;;;;;5.78;3.85;;;;;;;;;;4972138;28;20038;-75
2021/09/24 08:03:38;;;;;;;6.88;3.88;;;;;;;;;;4975877;28;20035;-74
2021/09/24 08:06:04;;;;;;;6.13;3.97;;;;;;;;;;4969383;28;20081;-78
2021/09/24 08:08:31;;;;;;;7.70;4.32;;;;;;;;;;4965864;28;20027;-77
2021/09/24 08:10:57;;;;;;;7.60;4.07;;;;;;;;;;4969581;28;20053;-79
2021/09/24 08:13:24;;;;;;;6.43;3.60;;;;;;;;;;4967828;28;20050;-82
2021/09/24 08:15:50;;;;;;;4.53;3.47;;;;;;;;;;4972797;28;20031;-82
2021/09/24 08:18:16;;;;;;;5.32;3.78;;;;;;;;;;4974766;28;20472;-78
2021/09/24 08:20:43;;;;;;;6.38;3.60;;;;;;;;;;4973136;28;20081;-79
2021/09/24 08:23:09;;;;;;;6.70;3.55;;;;;;;;;;4973052;28;20186;-86
2021/09/24 08:25:36;;;;;;;6.50;3.92;;;;;;;;;;4971172;28;20771;-83
2021/09/24 08:28:03;;;;;;;6.30;3.70;;;;;;;;;;4973579;28;20034;-87
2021/09/24 08:30:29;;;;;;;7.22;3.83;;;;;;;;;;4972996;28;20034;-89
2021/09/24 08:32:55;;;;;;;6.65;4.03;;;;;;;;;;4974084;28;20022;-87
2021/09/24 08:35:22;;;;;;;4.90;3.47;;;;;;;;;;4973487;28;20034;-79
2021/09/24 08:37:49;;;;;;;6.78;4.03;;;;;;;;;;4974320;28;20027;-76
2021/09/24 08:40:16;;;;;;;5.07;3.80;;;;;;;;;;4969279;28;20027;-76
2021/09/24 08:42:43;;;;;;;6.47;4.30;;;;;;;;;;4973442;28;20102;-74
2021/09/24 08:45:13;;;;;;;7.65;4.00;;;;;;;;;;4973886;28;20493;-76
2021/09/24 08:47:39;;;;;;;7.43;4.70;;;;;;;;;;4972467;28;20090;-77
2021/09/24 08:50:06;;;;;;;6.75;5.05;;;;;;;;;;4972060;28;20512;-77
2021/09/24 08:52:33;;;;;;;11.13;5.93;;;;;;;;;;4973180;28;20126;-77
2021/09/24 08:54:59;;;;;;;7.90;4.13;;;;;;;;;;4973777;28;20552;-79
2021/09/24 08:57:25;;;;;;;11.95;5.03;;;;;;;;;;4972645;28;20038;-81
2021/09/24 08:59:51;;;;;;;6.10;3.55;;;;;;;;;;4973757;28;20065;-76
2021/09/24 09:02:17;;;;;;;6.18;3.80;;;;;;;;;;4973638;28;20034;-74
2021/09/24 09:04:47;;;;;;;7.22;3.90;;;;;;;;;;4974301;28;20093;-83
2021/09/24 09:07:18;;;;;;;6.72;4.18;;;;;;;;;;4972168;28;20029;-81
2021/09/24 09:09:50;;;;;;;8.13;4.53;;;;;;;;;;4970885;28;20027;-84
2021/09/24 09:12:16;;;;;;;9.75;5.07;;;;;;;;;;4972348;28;20019;-79
2021/09/24 09:14:46;;;;;;;9.52;5.00;;;;;;;;;;4974323;28;20030;-87
2021/09/24 09:17:32;;;;;;;9.00;5.00;;;;;;;;;;4973655;28;20485;-87
2021/09/24 09:20:16;;;;;;;10.48;3.53;;;;;;;;;;4975074;28;20027;-89
2021/09/24 09:22:42;;;;;;;;;;;;;;;;;;4971355;28;20048;-89
2021/09/24 09:25:12;;;;;;;8.75;4.10;;;;;;;;;;4993696;28;19926;-85
2021/09/24 09:27:38;;;;;;;7.30;4.03;;;;;;;;;;4994263;28;20058;-88
2021/09/24 09:30:12;;;;;;;7.07;4.18;;;;;;;;;;4993596;28;20113;-81
2021/09/24 10:05:54;;;;;;;7.53;4.40;;;;;;;;;;5195557;23;20049;-82
2021/09/24 10:08:22;;;;;;;17.95;13.05;;;;;;;;;;4987120;28;20022;-88
2021/09/24 10:10:59;;;;;;;8.55;7.25;;;;;;;;;;4989768;28;20109;-80
2021/09/24 10:13:35;;;;;;;7.20;5.45;;;;;;;;;;4990883;28;20034;-83
2021/09/24 10:16:02;;;;;;;31.17;22.13;;;;;;;;;;4992130;28;20028;-77
2021/09/24 10:18:28;;;;;;;9.88;7.53;;;;;;;;;;4992713;28;20030;-87
2021/09/24 10:20:54;;;;;;;12.05;8.52;;;;;;;;;;4991747;28;20081;-86
2021/09/24 10:23:21;;;;;;;11.13;7.05;;;;;;;;;;4990533;28;20030;-88
2021/09/24 10:25:49;;;;;;;8.32;6.30;;;;;;;;;;4974464;28;20747;-86
2021/09/24 10:28:15;;;;;;;7.55;4.63;;;;;;;;;;4990344;28;20161;-86
2021/09/24 10:30:41;;;;;;;7.72;4.72;;;;;;;;;;4988211;28;20041;-78
2021/09/24 10:33:11;;;;;;;7.20;4.03;;;;;;;;;;4984866;28;20532;-87
2021/09/24 10:35:55;;;;;;;7.07;4.20;;;;;;;;;;4983006;28;20134;-85
2021/09/24 10:38:23;;;;;;;6.75;4.15;;;;;;;;;;4989896;28;20065;-73
2021/09/24 10:41:09;;;;;;;6.80;5.70;;;;;;;;;;4988287;28;20034;-76
2021/09/24 10:43:41;;;;;;;9.88;5.32;;;;;;;;;;4989215;28;20093;-73
2021/09/24 10:46:43;;;;;;;6.93;4.65;;;;;;;;;;4992244;28;20014;-86
2021/09/24 10:49:19;;;;;;;8.50;6.32;;;;;;;;;;4932328;29;20051;-75
2021/09/24 10:51:47;;;;;;;25.38;11.23;;;;;;;;;;4927930;29;20044;-80
2021/09/24 10:54:17;;;;;;;15.45;6.72;;;;;;;;;;4926010;29;20039;-81
2021/09/24 10:56:58;;;;;;;10.10;7.47;;;;;;;;;;4931284;29;20122;-79
2021/09/24 10:59:29;;;;;;;13.50;7.53;;;;;;;;;;4924888;29;20453;-78
2021/09/24 11:01:55;;;;;;;24.65;12.52;;;;;;;;;;4930203;29;20038;-79
2021/09/24 11:04:40;;;;;;;9.13;4.40;;;;;;;;;;4936461;29;20047;-77
2021/09/24 11:07:06;;;;;;;14.63;11.02;;;;;;;;;;4929398;29;20056;-79
2021/09/24 11:09:34;;;;;;;10.45;6.97;;;;;;;;;;4933848;29;20082;-78
2021/09/24 11:12:04;;;;;;;8.10;5.80;;;;;;;;;;4928788;29;20585;-79
2021/09/24 11:14:42;;;;;;;6.65;4.72;;;;;;;;;;4933895;29;20087;-78
2021/09/24 11:17:10;;;;;;;11.23;4.75;;;;;;;;;;4919306;29;20390;-73
2021/09/24 11:19:39;;;;;;;12.55;4.75;;;;;;;;;;4932563;29;20147;-72
2021/09/24 11:22:05;;;;;;;7.55;4.90;;;;;;;;;;4920465;29;20430;-79
2021/09/24 11:24:33;;;;;;;9.02;4.75;;;;;;;;;;4949908;28;20403;-72
2021/09/24 11:27:04;;;;;;;7.97;5.38;;;;;;;;;;4979248;28;20033;-75
2021/09/24 11:29:30;;;;;;;7.60;4.43;;;;;;;;;;4972156;28;20358;-78
2021/09/24 11:31:58;;;;;;;6.63;4.63;;;;;;;;;;4972857;28;21684;-75
2021/09/24 11:34:34;;;;;;;8.20;4.22;;;;;;;;;;4975190;28;20504;-78
2021/09/24 11:37:02;;;;;;;6.18;5.05;;;;;;;;;;4974583;28;20027;-78
2021/09/24 11:39:28;;;;;;;9.25;6.13;;;;;;;;;;4974416;28;20106;-84
2021/09/24 11:42:05;;;;;;;6.57;4.55;;;;;;;;;;4973979;28;20026;-77
2021/09/24 11:44:32;;;;;;;5.63;3.92;;;;;;;;;;4975030;28;20042;-83
2021/09/24 11:47:00;;;;;;;6.88;4.28;;;;;;;;;;4973302;28;20082;-82
2021/09/24 11:49:26;;;;;;;7.90;5.00;;;;;;;;;;4973933;28;20023;-78
2021/09/24 11:51:59;;;;;;;6.80;4.45;;;;;;;;;;4972477;28;20038;-74
2021/09/24 11:54:28;;;;;;;15.63;4.85;;;;;;;;;;4974344;28;20030;-76
2021/09/24 11:56:54;;;;;;;6.63;4.10;;;;;;;;;;4974268;28;20027;-77
2021/09/24 11:59:23;;;;;;;11.50;4.72;;;;;;;;;;4974079;28;20085;-76
2021/09/24 12:01:49;;;;;;;11.13;4.28;;;;;;;;;;4973555;28;20054;-80
2021/09/24 12:04:15;;;;;;;7.85;3.83;;;;;;;;;;4973335;28;20066;-76
2021/09/24 12:06:45;;;;;;;7.25;4.10;;;;;;;;;;4972778;28;20516;-71
2021/09/24 12:09:12;;;;;;;5.55;3.80;;;;;;;;;;4973023;28;20042;-72
2021/09/24 12:11:41;;;;;;;7.40;3.95;;;;;;;;;;4971639;28;20114;-80
2021/09/24 12:14:08;;;;;;;9.35;4.22;;;;;;;;;;4973207;28;20030;-71
2021/09/24 12:16:39;;;;;;;7.22;4.28;;;;;;;;;;4972713;28;20041;-74
2021/09/24 12:19:10;;;;;;;5.30;3.70;;;;;;;;;;4970126;28;20023;-76
2021/09/24 12:21:40;;;;;;;7.47;4.28;;;;;;;;;;4974066;28;20102;-80
2021/09/24 12:24:07;;;;;;;8.65;4.07;;;;;;;;;;4973708;28;20449;-74
2021/09/24 12:26:35;;;;;;;5.28;3.70;;;;;;;;;;4973440;28;20027;-71
2021/09/24 12:29:02;;;;;;;6.20;3.55;;;;;;;;;;4971021;28;20094;-72
2021/09/24 12:31:35;;;;;;;5.53;3.47;;;;;;;;;;4972457;28;20091;-71
2021/09/24 12:34:01;;;;;;;6.75;3.55;;;;;;;;;;4988266;28;20854;-81
2021/09/24 12:36:27;;;;;;;12.20;3.80;;;;;;;;;;4972697;28;20030;-73
2021/09/24 12:38:54;;;;;;;5.35;3.78;;;;;;;;;;4974371;28;20038;-71
2021/09/24 12:41:20;;;;;;;6.18;4.00;;;;;;;;;;4974296;28;20062;-72
2021/09/24 12:43:47;;;;;;;7.78;3.85;;;;;;;;;;4974386;28;20047;-80
2021/09/24 12:46:14;;;;;;;10.50;4.93;;;;;;;;;;4969280;28;20027;-84
2021/09/24 12:48:44;;;;;;;6.88;4.40;;;;;;;;;;4973629;28;20252;-84
2021/09/24 12:51:10;;;;;;;6.25;4.78;;;;;;;;;;4973994;28;20031;-76
2021/09/24 12:53:42;;;;;;;8.35;4.40;;;;;;;;;;4974894;28;20077;-82
2021/09/24 12:56:08;;;;;;;6.47;4.22;;;;;;;;;;4965676;28;20062;-71
2021/09/24 12:58:35;;;;;;;6.65;3.65;;;;;;;;;;4968825;28;20114;-79
2021/09/24 13:01:02;;;;;;;6.00;4.20;;;;;;;;;;4968454;28;20061;-74
2021/09/24 13:03:30;;;;;;;7.75;3.85;;;;;;;;;;4973298;28;20030;-78
2021/09/24 13:05:57;;;;;;;5.88;3.70;;;;;;;;;;4972604;28;20489;-78
2021/09/24 13:08:23;;;;;;;6.38;3.70;;;;;;;;;;4972009;28;20097;-75
2021/09/24 13:10:49;;;;;;;5.63;3.63;;;;;;;;;;4973734;28;20033;-80
2021/09/24 13:13:15;;;;;;;8.40;4.43;;;;;;;;;;4973922;28;20019;-82
2021/09/24 13:15:43;;;;;;;5.35;3.92;;;;;;;;;;4973855;28;20031;-80
2021/09/24 13:18:12;;;;;;;7.40;4.20;;;;;;;;;;4973396;28;20171;-83
2021/09/24 13:20:38;;;;;;;8.63;4.15;;;;;;;;;;4973205;28;20039;-83
2021/09/24 13:23:04;;;;;;;7.18;4.55;;;;;;;;;;4972507;28;20081;-81
2021/09/24 13:25:30;;;;;;;6.97;4.00;;;;;;;;;;4973511;28;20122;-79
2021/09/24 13:27:56;;;;;;;8.52;4.10;;;;;;;;;;4973071;28;20026;-83
2021/09/24 13:30:22;;;;;;;9.13;4.40;;;;;;;;;;4973073;28;20030;-80
2021/09/24 13:32:48;;;;;;;6.55;4.10;;;;;;;;;;4973065;28;20031;-73
2021/09/24 13:35:16;;;;;;;8.88;4.10;;;;;;;;;;4971494;28;20022;-77
2021/09/24 13:37:43;;;;;;;10.32;4.25;;;;;;;;;;4971246;28;20052;-80
2021/09/24 13:40:10;;;;;;;7.75;4.50;;;;;;;;;;4973246;28;20015;-77
2021/09/24 13:42:37;;;;;;;9.40;4.70;;;;;;;;;;4973365;28;20520;-81
2021/09/24 13:45:04;;;;;;;7.13;4.50;;;;;;;;;;4972044;28;20037;-79
2021/09/24 13:47:30;;;;;;;7.05;4.43;;;;;;;;;;4972548;28;20019;-77
2021/09/24 13:49:56;;;;;;;11.05;4.85;;;;;;;;;;4973137;28;20036;-82
2021/09/24 13:52:22;;;;;;;7.95;4.75;;;;;;;;;;4969385;28;20035;-70
2021/09/24 13:54:48;;;;;;;9.00;4.80;;;;;;;;;;4963135;28;20102;-71
2021/09/24 13:57:15;;;;;;;7.95;5.15;;;;;;;;;;4969722;28;20030;-75
2021/09/24 13:59:41;;;;;;;9.05;5.28;;;;;;;;;;4972818;28;20485;-81
2021/09/24 14:02:07;;;;;;;7.40;4.75;;;;;;;;;;4971366;28;20070;-80
2021/09/24 14:04:34;;;;;;;8.68;4.63;;;;;;;;;;4970922;28;20042;-78
2021/09/24 14:07:00;;;;;;;9.48;4.80;;;;;;;;;;4971815;28;20058;-78
2021/09/24 14:09:26;;;;;;;10.90;5.05;;;;;;;;;;4967747;28;20652;-78
2021/09/24 14:11:52;;;;;;;11.23;5.28;;;;;;;;;;4973104;28;20026;-80
2021/09/24 14:14:18;;;;;;;8.30;5.40;;;;;;;;;;4968362;28;20035;-81
2021/09/24 14:16:44;;;;;;;9.60;5.20;;;;;;;;;;4964465;28;20766;-88
2021/09/24 14:19:12;;;;;;;9.07;5.03;;;;;;;;;;4971805;28;20026;-81
2021/09/24 14:21:38;;;;;;;14.80;5.50;;;;;;;;;;4972502;28;20022;-81
2021/09/24 14:24:05;;;;;;;10.43;5.47;;;;;;;;;;4971627;28;20085;-80
2021/09/24 14:26:31;;;;;;;15.80;6.60;;;;;;;;;;4970891;28;20037;-80
2021/09/24 14:28:57;;;;;;;11.18;5.95;;;;;;;;;;4971981;28;20031;-80
2021/09/24 14:31:24;;;;;;;12.32;5.63;;;;;;;;;;4970503;28;20058;-82
2021/09/24 14:33:52;;;;;;;8.15;5.90;;;;;;;;;;4972571;28;20054;-79
2021/09/24 14:36:18;;;;;;;11.93;5.75;;;;;;;;;;4971011;28;20027;-76
2021/09/24 14:38:44;;;;;;;17.58;8.35;;;;;;;;;;4971515;28;20038;-78
2021/09/24 14:41:10;;;;;;;9.52;5.97;;;;;;;;;;4969460;28;20028;-77
2021/09/24 14:43:36;;;;;;;16.50;10.77;;;;;;;;;;4959752;28;20031;-85
2021/09/24 14:46:03;;;;;;;23.13;13.35;;;;;;;;;;4970602;28;20062;-84
2021/09/24 14:48:29;;;;;;;25.08;13.90;;;;;;;;;;4969408;28;20023;-75
2021/09/24 14:50:55;;;;;;;12.80;5.95;;;;;;;;;;4972740;28;20388;-72
2021/09/24 14:53:22;;;;;;;8.48;5.78;;;;;;;;;;4970692;28;20070;-85
2021/09/24 14:55:49;;;;;;;8.80;5.60;;;;;;;;;;4966728;28;20086;-79
2021/09/24 14:58:15;;;;;;;10.60;5.68;;;;;;;;;;4972860;28;20027;-72
2021/09/24 15:00:41;;;;;;;8.85;5.40;;;;;;;;;;4975497;28;20030;-80
2021/09/24 15:03:07;;;;;;;10.00;5.00;;;;;;;;;;4971340;28;20050;-82
2021/09/24 15:05:33;;;;;;;8.38;5.28;;;;;;;;;;4967000;28;20227;-74
2021/09/24 15:07:59;;;;;;;8.40;4.65;;;;;;;;;;4961933;28;20697;-76
2021/09/24 15:10:26;;;;;;;7.03;5.00;;;;;;;;;;4970107;28;20441;-70
2021/09/24 15:12:52;;;;;;;7.78;4.97;;;;;;;;;;4961764;28;20015;-77
2021/09/24 15:15:18;;;;;;;7.80;5.10;;;;;;;;;;4967323;28;20084;-74
2021/09/24 15:17:44;;;;;;;9.38;5.43;;;;;;;;;;4967521;28;20074;-70
2021/09/24 15:20:11;;;;;;;9.98;5.82;;;;;;;;;;4967615;28;20027;-83
2021/09/24 15:22:38;;;;;;;11.48;5.45;;;;;;;;;;4969989;28;20073;-87
2021/09/24 15:25:04;;;;;;;7.07;4.63;;;;;;;;;;4964691;28;20174;-73
2021/09/24 15:27:31;;;;;;;9.02;4.68;;;;;;;;;;4968356;28;20062;-78
2021/09/24 15:29:57;;;;;;;8.10;4.80;;;;;;;;;;4972681;28;20378;-85